createdAt,value
2018-06-01T00:01:12.852Z,27.67
2018-06-01T00:03:45.873Z,25.90
2018-06-01T00:06:18.814Z,33.10
2018-06-01T00:08:51.374Z,30.90
2018-06-01T00:11:24.982Z,24.60
2018-06-01T00:13:58.015Z,20.37
2018-06-01T00:16:35.330Z,25.10
2018-06-01T00:19:10.086Z,26.47
2018-06-01T00:21:43.767Z,28.63
2018-06-01T00:24:16.616Z,26.00
2018-06-01T00:26:49.181Z,26.43
2018-06-01T00:29:23.996Z,22.77
2018-06-01T00:32:00.739Z,25.90
2018-06-01T00:34:34.285Z,23.43
2018-06-01T00:37:07.111Z,28.10
2018-06-01T00:39:39.708Z,23.47
2018-06-01T00:42:12.263Z,23.00
2018-06-01T00:44:45.022Z,24.00
2018-06-01T00:47:17.905Z,25.17
2018-06-01T00:49:50.718Z,27.23
2018-06-01T00:52:23.718Z,28.17
2018-06-01T00:55:28.899Z,31.40
2018-06-01T00:58:01.682Z,38.00
2018-06-01T01:00:34.804Z,32.57
2018-06-01T01:03:07.431Z,40.60
2018-06-01T01:05:40.553Z,32.07
2018-06-01T01:08:14.531Z,31.27
2018-06-01T01:10:47.525Z,35.97
2018-06-01T01:13:20.733Z,30.70
2018-06-01T01:15:54.997Z,34.70
2018-06-01T01:18:27.733Z,26.67
2018-06-01T01:21:00.809Z,30.00
2018-06-01T01:23:34.331Z,29.03
2018-06-01T01:26:07.878Z,24.70
2018-06-01T01:28:40.776Z,30.15
2018-06-01T01:31:19.750Z,30.97
2018-06-01T01:33:52.352Z,28.83
2018-06-01T01:36:25.000Z,22.37
2018-06-01T01:38:58.032Z,25.47
2018-06-01T01:41:30.513Z,28.87
2018-06-01T01:44:04.281Z,27.80
2018-06-01T01:46:37.016Z,32.53
2018-06-01T01:49:09.683Z,26.90
2018-06-01T01:51:42.007Z,29.60
2018-06-01T01:54:14.845Z,28.60
2018-06-01T01:56:47.509Z,27.20
2018-06-01T01:59:20.210Z,27.87
2018-06-01T02:01:53.002Z,35.25
2018-06-01T02:04:25.567Z,26.40
2018-06-01T02:06:58.230Z,28.37
2018-06-01T02:09:32.416Z,24.77
2018-06-01T02:12:05.230Z,31.02
2018-06-01T02:14:38.210Z,28.37
2018-06-01T02:17:11.070Z,27.90
2018-06-01T02:19:43.641Z,36.23
2018-06-01T02:22:16.056Z,30.70
2018-06-01T02:24:48.863Z,30.17
2018-06-01T02:27:21.204Z,30.30
2018-06-01T02:29:53.852Z,33.43
2018-06-01T02:32:26.745Z,33.75
2018-06-01T02:34:59.441Z,28.30
2018-06-01T02:37:31.906Z,30.65
2018-06-01T02:40:05.442Z,29.23
2018-06-01T02:42:38.076Z,28.97
2018-06-01T02:45:12.114Z,37.35
2018-06-01T02:47:45.212Z,32.77
2018-06-01T02:50:22.576Z,26.97
2018-06-01T02:52:55.215Z,30.83
2018-06-01T02:55:28.283Z,28.50
2018-06-01T02:58:01.080Z,30.37
2018-06-01T03:00:33.775Z,37.33
2018-06-01T03:03:06.897Z,38.20
2018-06-01T03:05:39.324Z,31.70
2018-06-01T03:08:11.897Z,37.05
2018-06-01T03:10:44.639Z,33.17
2018-06-01T03:13:17.201Z,33.03
2018-06-01T03:15:50.168Z,31.90
2018-06-01T03:18:23.446Z,33.83
2018-06-01T03:20:55.973Z,36.27
2018-06-01T03:23:28.499Z,33.20
2018-06-01T03:26:01.706Z,35.57
2018-06-01T03:28:34.620Z,30.10
2018-06-01T03:31:07.320Z,31.03
2018-06-01T03:33:40.582Z,26.80
2018-06-01T03:36:13.645Z,28.03
2018-06-01T03:38:46.027Z,27.97
2018-06-01T03:41:19.089Z,28.60
2018-06-01T03:43:51.612Z,28.30
2018-06-01T03:46:24.550Z,28.23
2018-06-01T03:48:57.641Z,29.50
2018-06-01T03:51:30.221Z,34.88
2018-06-01T03:54:02.921Z,21.67
2018-06-01T03:56:36.089Z,31.83
2018-06-01T03:59:09.053Z,30.67
2018-06-01T04:01:42.096Z,35.20
2018-06-01T04:04:15.089Z,33.85
2018-06-01T04:06:47.564Z,30.30
2018-06-01T04:09:29.493Z,27.73
2018-06-01T04:12:02.221Z,27.40
2018-06-01T04:14:34.800Z,32.45
2018-06-01T04:17:08.189Z,35.80
2018-06-01T04:19:41.001Z,31.70
2018-06-01T04:22:14.620Z,33.53
2018-06-01T04:24:48.937Z,32.93
2018-06-01T04:27:22.584Z,33.13
2018-06-01T04:29:55.193Z,33.00
2018-06-01T04:32:27.757Z,35.50
2018-06-01T04:35:00.460Z,37.67
2018-06-01T04:37:33.964Z,38.23
2018-06-01T04:40:08.913Z,32.33
2018-06-01T04:42:42.162Z,27.63
2018-06-01T04:45:17.101Z,27.37
2018-06-01T04:47:50.021Z,17.27
2018-06-01T04:50:22.701Z,16.60
2018-06-01T04:52:55.804Z,17.00
2018-06-01T04:55:29.559Z,17.70
2018-06-01T04:58:02.920Z,23.80
2018-06-01T05:00:37.689Z,33.30
2018-06-01T05:03:11.952Z,49.23
2018-06-01T05:05:44.750Z,57.70
2018-06-01T05:08:18.007Z,69.83
2018-06-01T05:10:50.910Z,73.00
2018-06-01T05:13:23.484Z,71.30
2018-06-01T05:15:55.981Z,65.90
2018-06-01T05:18:28.854Z,62.40
2018-06-01T05:21:01.873Z,65.60
2018-06-01T05:23:34.351Z,77.97
2018-06-01T05:26:07.423Z,86.43
2018-06-01T05:28:40.848Z,71.30
2018-06-01T05:31:13.340Z,83.90
2018-06-01T05:33:46.353Z,84.63
2018-06-01T05:36:18.883Z,87.83
2018-06-01T05:38:51.477Z,87.93
2018-06-01T05:41:24.067Z,89.67
2018-06-01T05:43:56.633Z,93.90
2018-06-01T05:46:29.342Z,91.07
2018-06-01T05:49:04.190Z,104.57
2018-06-01T05:51:36.760Z,99.43
2018-06-01T05:54:11.188Z,113.07
2018-06-01T05:56:44.092Z,97.53
2018-06-01T05:59:16.629Z,102.93
2018-06-01T06:01:49.161Z,89.17
2018-06-01T06:04:21.748Z,85.60
2018-06-01T06:06:54.433Z,78.20
2018-06-01T06:09:27.444Z,72.60
2018-06-01T06:12:00.066Z,70.90
2018-06-01T06:14:33.104Z,73.37
2018-06-01T06:17:05.637Z,66.87
2018-06-01T06:19:38.149Z,92.12
2018-06-01T06:22:10.927Z,70.57
2018-06-01T06:24:43.970Z,64.17
2018-06-01T06:27:16.464Z,64.07
2018-06-01T06:29:49.418Z,67.30
2018-06-01T06:32:21.819Z,57.53
2018-06-01T06:34:54.518Z,60.53
2018-06-01T06:37:27.395Z,64.87
2018-06-01T06:40:00.535Z,69.70
2018-06-01T06:42:33.257Z,67.23
2018-06-01T06:45:07.640Z,84.40
2018-06-01T06:47:40.147Z,68.40
2018-06-01T06:50:15.020Z,63.07
2018-06-01T06:52:47.572Z,79.57
2018-06-01T06:55:20.213Z,79.03
2018-06-01T06:57:52.708Z,70.80
2018-06-01T07:00:25.605Z,73.80
2018-06-01T07:02:58.033Z,70.07
2018-06-01T07:05:30.822Z,68.17
2018-06-01T07:08:03.902Z,63.67
2018-06-01T07:10:37.513Z,56.60
2018-06-01T07:13:10.092Z,55.73
2018-06-01T07:15:43.433Z,59.70
2018-06-01T07:18:15.999Z,59.17
2018-06-01T07:20:48.647Z,57.13
2018-06-01T07:23:22.492Z,59.20
2018-06-01T07:25:55.101Z,56.73
2018-06-01T07:28:28.193Z,68.75
2018-06-01T07:32:56.002Z,61.67
2018-06-01T07:35:28.484Z,54.70
2018-06-01T07:38:01.628Z,50.27
2018-06-01T07:40:33.865Z,48.53
2018-06-01T07:43:06.317Z,49.17
2018-06-01T07:45:39.172Z,49.10
2018-06-01T07:48:11.556Z,52.13
2018-06-01T07:50:44.105Z,50.20
2018-06-01T07:53:16.496Z,53.90
2018-06-01T07:55:49.108Z,68.45
2018-06-01T07:58:21.774Z,59.73
2018-06-01T08:00:54.369Z,59.30
2018-06-01T08:03:27.186Z,58.53
2018-06-01T08:05:59.955Z,67.78
2018-06-01T08:08:32.429Z,55.93
2018-06-01T08:11:05.898Z,55.03
2018-06-01T08:13:38.940Z,58.30
2018-06-01T08:16:11.542Z,61.13
2018-06-01T08:18:44.333Z,59.90
2018-06-01T08:21:17.182Z,58.53
2018-06-01T08:23:51.857Z,64.17
2018-06-01T08:28:05.178Z,65.00
2018-06-01T08:30:38.501Z,61.13
2018-06-01T08:33:11.338Z,61.83
2018-06-01T08:35:44.043Z,58.30
2018-06-01T08:38:17.397Z,58.37
2018-06-01T08:40:50.999Z,57.67
2018-06-01T08:43:24.862Z,53.67
2018-06-01T08:45:57.732Z,44.93
2018-06-01T08:48:30.302Z,48.10
2018-06-01T08:51:02.822Z,48.07
2018-06-01T08:53:35.507Z,48.63
2018-06-01T08:56:07.943Z,57.83
2018-06-01T08:58:40.586Z,57.27
2018-06-01T09:01:15.046Z,49.93
2018-06-01T09:03:49.736Z,44.40
2018-06-01T09:06:22.801Z,50.00
2018-06-01T09:08:55.376Z,57.80
2018-06-01T09:11:27.895Z,59.20
2018-06-01T09:14:00.343Z,52.47
2018-06-01T09:16:32.612Z,59.07
2018-06-01T09:19:05.250Z,58.87
2018-06-01T09:21:39.237Z,83.07
2018-06-01T09:24:12.087Z,61.13
2018-06-01T09:26:45.104Z,68.67
2018-06-01T09:29:18.189Z,59.43
2018-06-01T09:31:52.110Z,58.50
2018-06-01T09:34:24.577Z,51.60
2018-06-01T09:36:58.192Z,50.30
2018-06-01T09:39:32.379Z,52.50
2018-06-01T09:42:04.816Z,46.97
2018-06-01T09:44:37.600Z,47.97
2018-06-01T09:47:10.209Z,45.37
2018-06-01T09:49:43.945Z,42.90
2018-06-01T09:52:16.771Z,54.15
2018-06-01T09:54:49.817Z,47.70
2018-06-01T09:57:23.351Z,49.43
2018-06-01T09:59:56.609Z,50.10
2018-06-01T10:02:29.127Z,51.70
2018-06-01T10:05:02.364Z,59.15
2018-06-01T10:07:36.252Z,51.07
2018-06-01T10:10:35.461Z,43.63
2018-06-01T10:13:16.524Z,58.72
2018-06-01T10:16:03.552Z,49.13
2018-06-01T10:18:47.377Z,50.50
2018-06-01T10:21:38.709Z,47.73
2018-06-01T10:24:23.356Z,46.90
2018-06-01T10:26:56.748Z,57.70
2018-06-01T10:29:46.665Z,50.33
2018-06-01T10:32:23.172Z,44.83
2018-06-01T10:35:13.058Z,53.10
2018-06-01T10:37:57.380Z,44.87
2018-06-01T10:40:33.623Z,43.70
2018-06-01T10:43:08.895Z,56.83
2018-06-01T10:45:43.085Z,46.67
2018-06-01T10:48:16.510Z,44.87
2018-06-01T10:50:53.161Z,52.90
2018-06-01T10:53:34.859Z,51.53
2018-06-01T10:56:10.983Z,49.73
2018-06-01T10:58:44.764Z,43.63
2018-06-01T11:01:23.257Z,41.13
2018-06-01T11:03:56.065Z,41.00
2018-06-01T11:06:31.129Z,41.73
2018-06-01T11:09:05.737Z,44.37
2018-06-01T11:11:38.059Z,42.07
2018-06-01T11:14:10.582Z,41.97
2018-06-01T11:16:43.025Z,44.92
2018-06-01T11:19:15.662Z,41.30
2018-06-01T11:21:48.611Z,48.55
2018-06-01T11:24:21.185Z,40.90
2018-06-01T11:26:58.079Z,40.45
2018-06-01T11:29:30.578Z,34.37
2018-06-01T11:32:02.956Z,38.53
2018-06-01T11:34:35.320Z,39.07
2018-06-01T11:37:08.235Z,35.63
2018-06-01T11:39:41.165Z,37.30
2018-06-01T11:42:13.475Z,39.73
2018-06-01T11:44:46.257Z,42.23
2018-06-01T11:47:18.686Z,42.70
2018-06-01T11:49:51.353Z,52.22
2018-06-01T11:52:24.548Z,50.27
2018-06-01T11:54:57.953Z,49.70
2018-06-01T11:57:30.780Z,52.60
2018-06-01T12:00:05.442Z,52.93
2018-06-01T12:02:37.794Z,59.42
2018-06-01T12:05:10.501Z,56.20
2018-06-01T12:07:42.996Z,57.73
2018-06-01T12:10:17.068Z,57.83
2018-06-01T12:12:50.959Z,57.53
2018-06-01T12:15:24.459Z,55.70
2018-06-01T12:17:57.743Z,55.30
2018-06-01T12:20:31.076Z,57.43
2018-06-01T12:23:03.660Z,62.63
2018-06-01T12:25:36.577Z,61.83
2018-06-01T12:28:09.067Z,72.18
2018-06-01T12:30:41.655Z,64.27
2018-06-01T12:33:14.459Z,64.40
2018-06-01T12:35:47.258Z,77.95
2018-06-01T12:38:20.605Z,67.27
2018-06-01T12:40:53.799Z,67.07
2018-06-01T12:43:26.427Z,66.27
2018-06-01T12:45:59.431Z,67.37
2018-06-01T12:48:32.370Z,79.82
2018-06-01T12:51:05.003Z,66.70
2018-06-01T12:53:37.552Z,62.33
2018-06-01T12:56:10.693Z,66.27
2018-06-01T12:58:43.045Z,66.77
2018-06-01T13:01:15.706Z,67.93
2018-06-01T13:03:48.241Z,65.33
2018-06-01T13:06:20.988Z,74.63
2018-06-01T13:08:53.691Z,73.00
2018-06-01T13:11:26.324Z,75.83
2018-06-01T13:13:59.632Z,81.00
2018-06-01T13:16:34.053Z,95.95
2018-06-01T13:19:06.618Z,78.23
2018-06-01T13:21:39.568Z,79.33
2018-06-01T13:24:12.097Z,79.50
2018-06-01T13:26:44.548Z,85.57
2018-06-01T13:29:17.285Z,84.30
2018-06-01T13:31:50.655Z,83.50
2018-06-01T13:34:23.041Z,85.20
2018-06-01T13:36:59.226Z,86.17
2018-06-01T13:39:32.128Z,85.33
2018-06-01T13:42:05.454Z,85.57
2018-06-01T13:44:38.110Z,87.87
2018-06-01T13:47:10.700Z,88.10
2018-06-01T13:49:43.407Z,104.47
2018-06-01T13:52:16.103Z,96.97
2018-06-01T13:54:48.588Z,91.57
2018-06-01T13:57:21.400Z,97.17
2018-06-01T13:59:54.689Z,97.07
2018-06-01T14:02:27.528Z,97.80
2018-06-01T14:05:00.950Z,100.77
2018-06-01T14:07:34.962Z,100.83
2018-06-01T14:10:07.326Z,104.07
2018-06-01T14:12:40.149Z,105.70
2018-06-01T14:15:13.805Z,100.80
2018-06-01T14:17:46.306Z,95.87
2018-06-01T14:20:19.122Z,86.77
2018-06-01T14:22:51.787Z,88.33
2018-06-01T14:25:24.308Z,86.33
2018-06-01T14:27:57.259Z,86.23
2018-06-01T14:30:29.906Z,87.27
2018-06-01T14:33:02.756Z,81.97
2018-06-01T14:35:35.672Z,78.97
2018-06-01T14:38:08.484Z,95.43
2018-06-01T14:40:41.577Z,94.25
2018-06-01T14:43:15.472Z,89.50
2018-06-01T14:45:48.132Z,73.67
2018-06-01T14:48:20.841Z,90.83
2018-06-01T14:50:54.499Z,88.70
2018-06-01T14:53:27.305Z,76.10
2018-06-01T14:56:00.167Z,79.57
2018-06-01T14:58:33.046Z,78.70
2018-06-01T15:01:05.530Z,84.57
2018-06-01T15:03:38.030Z,89.70
2018-06-01T15:06:10.763Z,104.63
2018-06-01T15:08:43.441Z,103.43
2018-06-01T15:11:15.921Z,96.73
2018-06-01T15:13:54.367Z,97.50
2018-06-01T15:16:27.508Z,115.73
2018-06-01T15:19:00.234Z,116.73
2018-06-01T15:21:34.043Z,141.50
2018-06-01T15:24:06.624Z,117.93
2018-06-01T15:26:39.182Z,114.60
2018-06-01T15:29:11.885Z,105.63
2018-06-01T15:31:44.729Z,124.30
2018-06-01T15:34:17.251Z,121.72
2018-06-01T15:36:50.511Z,111.23
2018-06-01T15:39:23.080Z,111.23
2018-06-01T15:41:55.825Z,104.40
2018-06-01T15:44:28.893Z,107.23
2018-06-01T15:47:01.290Z,105.47
2018-06-01T15:49:34.864Z,102.60
2018-06-01T15:52:08.537Z,103.33
2018-06-01T15:54:41.217Z,127.00
2018-06-01T15:57:14.064Z,111.77
2018-06-01T15:59:50.724Z,103.43
2018-06-01T16:04:53.729Z,115.18
2018-06-01T16:07:26.889Z,121.05
2018-06-01T16:09:59.247Z,104.93
2018-06-01T16:12:32.222Z,96.60
2018-06-01T16:15:06.307Z,94.80
2018-06-01T16:17:38.836Z,92.70
2018-06-01T16:20:11.642Z,90.37
2018-06-01T16:22:44.656Z,92.27
2018-06-01T16:25:17.285Z,97.73
2018-06-01T16:27:50.433Z,94.90
2018-06-01T16:30:23.010Z,90.43
2018-06-01T16:32:55.352Z,85.33
2018-06-01T16:35:28.136Z,91.63
2018-06-01T16:38:02.257Z,95.30
2018-06-01T16:40:35.754Z,83.00
2018-06-01T16:43:09.507Z,88.77
2018-06-01T16:45:41.931Z,89.47
2018-06-01T16:48:14.271Z,104.43
2018-06-01T16:50:47.107Z,97.57
2018-06-01T16:53:19.609Z,82.27
2018-06-01T16:55:52.018Z,78.10
2018-06-01T16:58:24.785Z,80.20
2018-06-01T17:00:57.359Z,82.62
2018-06-01T17:03:29.783Z,75.70
2018-06-01T17:06:07.381Z,74.30
2018-06-01T17:08:40.732Z,69.83
2018-06-01T17:11:13.149Z,72.00
2018-06-01T17:13:45.916Z,73.53
2018-06-01T17:16:19.194Z,70.53
2018-06-01T17:18:52.970Z,70.33
2018-06-01T17:21:27.312Z,66.07
2018-06-01T17:24:01.669Z,65.83
2018-06-01T17:26:34.545Z,64.83
2018-06-01T17:29:12.089Z,71.43
2018-06-01T17:31:46.064Z,62.23
2018-06-01T17:34:24.112Z,61.27
2018-06-01T17:36:59.507Z,58.00
2018-06-01T17:39:42.194Z,51.13
2018-06-01T17:42:20.711Z,49.90
2018-06-01T17:44:53.915Z,45.60
2018-06-01T17:47:28.612Z,43.07
2018-06-01T17:50:01.324Z,38.47
2018-06-01T17:52:34.708Z,44.28
2018-06-01T17:55:07.626Z,36.77
2018-06-01T17:57:40.223Z,36.93
2018-06-01T18:00:16.171Z,32.10
2018-06-01T18:02:50.024Z,35.33
2018-06-01T18:05:29.035Z,34.63
2018-06-01T18:08:08.192Z,33.97
2018-06-01T18:10:46.409Z,35.57
2018-06-01T18:13:22.445Z,30.67
2018-06-01T18:16:02.208Z,32.00
2018-06-01T18:18:36.869Z,30.23
2018-06-01T18:21:09.864Z,30.87
2018-06-01T18:23:43.885Z,30.90
2018-06-01T18:26:17.491Z,31.60
2018-06-01T18:28:49.979Z,32.97
2018-06-01T18:31:22.656Z,33.40
2018-06-01T18:33:55.571Z,33.17
2018-06-01T18:36:27.964Z,35.67
2018-06-01T18:39:00.595Z,40.05
2018-06-01T18:41:33.132Z,33.07
2018-06-01T18:44:07.015Z,34.53
2018-06-01T18:46:39.440Z,42.57
2018-06-01T18:49:11.882Z,45.42
2018-06-01T18:51:44.192Z,39.13
2018-06-01T18:54:16.832Z,38.93
2018-06-01T18:56:49.392Z,43.47
2018-06-01T18:59:23.314Z,45.17
2018-06-01T19:01:55.800Z,47.90
2018-06-01T19:04:28.316Z,47.53
2018-06-01T19:07:01.203Z,52.73
2018-06-01T19:09:33.801Z,55.87
2018-06-01T19:12:07.172Z,54.27
2018-06-01T19:14:39.953Z,58.37
2018-06-01T19:17:12.571Z,59.23
2018-06-01T19:19:45.124Z,67.63
2018-06-01T19:22:17.823Z,63.28
2018-06-01T19:24:50.920Z,56.47
2018-06-01T19:27:23.177Z,55.80
2018-06-01T19:29:55.993Z,56.27
2018-06-01T19:32:28.615Z,54.43
2018-06-01T19:35:01.370Z,53.47
2018-06-01T19:37:34.129Z,53.87
2018-06-01T19:40:06.957Z,55.67
2018-06-01T19:42:39.549Z,55.00
2018-06-01T19:45:14.077Z,56.40
2018-06-01T19:47:46.780Z,56.73
2018-06-01T19:50:19.243Z,57.33
2018-06-01T19:52:52.775Z,58.83
2018-06-01T19:55:25.205Z,60.50
2018-06-01T19:57:57.668Z,57.30
2018-06-01T20:00:30.483Z,58.87
2018-06-01T20:03:03.013Z,51.87
2018-06-01T20:05:35.678Z,51.93
2018-06-01T20:08:08.637Z,50.53
2018-06-01T20:10:45.091Z,51.20
2018-06-01T20:13:19.336Z,56.47
2018-06-01T20:15:53.375Z,49.97
2018-06-01T20:18:27.608Z,48.17
2018-06-01T20:21:00.544Z,57.13
2018-06-01T20:23:33.908Z,49.20
2018-06-01T20:26:06.949Z,59.40
2018-06-01T20:28:42.172Z,54.17
2018-06-01T20:31:16.216Z,54.57
2018-06-01T20:33:51.075Z,62.13
2018-06-01T20:36:26.256Z,68.07
2018-06-01T20:39:00.259Z,62.17
2018-06-01T20:41:33.258Z,60.30
2018-06-01T20:44:06.468Z,68.72
2018-06-01T20:46:40.214Z,70.10
2018-06-01T20:49:12.855Z,61.80
2018-06-01T20:51:47.076Z,62.13
2018-06-01T20:54:20.345Z,70.32
2018-06-01T20:56:53.178Z,63.03
2018-06-01T20:59:27.532Z,63.63
2018-06-01T21:02:02.288Z,65.37
2018-06-01T21:04:34.836Z,76.10
2018-06-01T21:07:08.060Z,67.95
2018-06-01T21:09:40.873Z,61.77
2018-06-01T21:12:13.478Z,59.17
2018-06-01T21:14:46.206Z,68.80
2018-06-01T21:17:19.429Z,56.87
2018-06-01T21:19:51.864Z,66.35
2018-06-01T21:22:24.340Z,59.73
2018-06-01T21:24:57.068Z,66.25
2018-06-01T21:27:29.642Z,58.47
2018-06-01T21:30:04.984Z,55.43
2018-06-01T21:32:38.009Z,55.40
2018-06-01T21:35:10.408Z,60.60
2018-06-01T21:37:43.694Z,59.17
2018-06-01T21:40:17.204Z,60.33
2018-06-01T21:43:03.117Z,60.83
2018-06-01T21:45:36.723Z,63.60
2018-06-01T21:48:09.279Z,62.67
2018-06-01T21:50:42.496Z,59.20
2018-06-01T21:53:15.623Z,60.90
2018-06-01T21:55:48.164Z,59.90
2018-06-01T21:58:21.128Z,60.00
2018-06-01T22:00:53.649Z,58.77
2018-06-01T22:03:28.602Z,60.97
2018-06-01T22:06:01.787Z,63.33
2018-06-01T22:08:39.543Z,71.05
2018-06-01T22:11:12.183Z,61.43
2018-06-01T22:13:45.093Z,58.77
2018-06-01T22:16:18.531Z,57.17
2018-06-01T22:18:51.362Z,64.43
2018-06-01T22:21:25.429Z,68.75
2018-06-01T22:23:58.229Z,68.12
2018-06-01T22:26:30.867Z,58.43
2018-06-01T22:29:03.851Z,61.40
2018-06-01T22:31:36.397Z,60.03
2018-06-01T22:34:08.780Z,63.57
2018-06-01T22:36:41.490Z,62.67
2018-06-01T22:39:14.311Z,65.60
2018-06-01T22:41:46.667Z,66.97
2018-06-01T22:44:19.980Z,68.77
2018-06-01T22:46:52.268Z,68.80
2018-06-01T22:49:24.892Z,68.10
2018-06-01T22:51:57.897Z,71.80
2018-06-01T22:54:30.410Z,71.90
2018-06-01T22:57:02.829Z,72.47
2018-06-01T22:59:36.344Z,72.00
2018-06-01T23:02:08.721Z,84.30
2018-06-01T23:04:41.161Z,67.13
2018-06-01T23:07:14.635Z,70.60
2018-06-01T23:09:47.112Z,70.07
2018-06-01T23:12:20.385Z,68.03
2018-06-01T23:14:54.539Z,67.03
2018-06-01T23:17:27.244Z,66.70
2018-06-01T23:20:00.755Z,78.53
2018-06-01T23:22:34.153Z,79.65
2018-06-01T23:25:06.564Z,69.20
2018-06-01T23:27:39.113Z,66.13
2018-06-01T23:30:13.325Z,63.83
2018-06-01T23:32:45.958Z,65.67
2018-06-01T23:35:18.786Z,65.53
2018-06-01T23:37:51.492Z,63.87
2018-06-01T23:40:23.904Z,64.93
2018-06-01T23:42:57.229Z,62.83
2018-06-01T23:45:30.040Z,61.00
2018-06-01T23:48:02.864Z,61.77
2018-06-01T23:50:35.392Z,62.53
2018-06-01T23:53:08.463Z,61.40
2018-06-01T23:55:46.529Z,63.43
2018-06-01T23:58:19.965Z,71.53
